Goofy Ridge, Illinois
Current Conditions -  °F | °C
As of 10:17 AM on Monday 24 Nov 2014 (Local Time) from KPIA Reporting Station
Light Snow Light Snow  
Wind Chill: 23°   Ceiling: 1600
Heat Index: 34°   Visibility: 3mi
Dew Point: 29°   Wind: 20mph
Humidity: 82%   Direction: 260°W
Pressure: 29.48"   Gusts: 30mph
Location:  40.3722°N, 89.9358°W
Report Text: KPIA 241617Z 26017G26KT 3SM -SN SCT010 BKN016 01/M02 A2948 RMK AO2 PK WND 27026/1611 P0000 T00111017
Loading
Personal Weather Stations






























Interactive Weather Map New forecast layout! Learn more

10-Day Weather Forecast

Advertisements
Track Severe Weather on mobile